Wainwright, Oklahoma
Current Conditions -  °F | °C
As of 2:43 AM on Saturday 20 Dec 2014 (Local Time) from KMKO Reporting Station
Haze Haze  
Wind Chill: 40°   Ceiling: 1100
Heat Index: 40°   Visibility: 5mi
Dew Point: 38°   Wind: 3mph
Humidity: 93%   Direction: 360°N
Pressure: 30.24"   Gusts: NA
Location:  35.61°N, 95.56°W
Report Text: KMKO 200843Z AUTO 36003KT 5SM BR FEW005 OVC011 04/03 A3024 RMK AO2 T00440033
Loading
Personal Weather Stations






























Interactive Weather Map New forecast layout! Learn more

10-Day Weather Forecast

Advertisements
Track Severe Weather on mobile